sensor_id;sensor_type;location;lat;lon;timestamp;P1;durP1;ratioP1;P2;durP2;ratioP2
37545;SDS011;23389;52.484;13.572;2023-05-07T00:01:15;16.98;;;14.23;;
37545;SDS011;23389;52.484;13.572;2023-05-07T00:03:40;17.50;;;14.52;;
37545;SDS011;23389;52.484;13.572;2023-05-07T00:06:05;17.85;;;14.52;;
37545;SDS011;23389;52.484;13.572;2023-05-07T00:08:31;17.35;;;14.02;;
37545;SDS011;23389;52.484;13.572;2023-05-07T00:10:56;18.17;;;13.77;;
37545;SDS011;23389;52.484;13.572;2023-05-07T00:13:21;18.58;;;13.85;;
37545;SDS011;23389;52.484;13.572;2023-05-07T00:15:46;18.10;;;14.00;;
37545;SDS011;23389;52.484;13.572;2023-05-07T00:18:11;18.10;;;13.48;;
37545;SDS011;23389;52.484;13.572;2023-05-07T00:20:36;20.23;;;14.40;;
37545;SDS011;23389;52.484;13.572;2023-05-07T00:23:01;17.75;;;13.82;;
37545;SDS011;23389;52.484;13.572;2023-05-07T00:25:26;16.85;;;13.32;;
37545;SDS011;23389;52.484;13.572;2023-05-07T00:27:51;17.85;;;14.20;;
37545;SDS011;23389;52.484;13.572;2023-05-07T00:30:17;17.85;;;15.00;;
37545;SDS011;23389;52.484;13.572;2023-05-07T00:32:42;20.53;;;14.37;;
37545;SDS011;23389;52.484;13.572;2023-05-07T00:35:07;19.63;;;13.73;;
37545;SDS011;23389;52.484;13.572;2023-05-07T00:37:32;19.85;;;14.25;;
37545;SDS011;23389;52.484;13.572;2023-05-07T00:39:57;22.52;;;15.88;;
37545;SDS011;23389;52.484;13.572;2023-05-07T00:42:22;17.95;;;14.90;;
37545;SDS011;23389;52.484;13.572;2023-05-07T00:44:48;17.05;;;14.63;;
37545;SDS011;23389;52.484;13.572;2023-05-07T00:47:14;19.17;;;14.73;;
37545;SDS011;23389;52.484;13.572;2023-05-07T00:49:40;17.27;;;14.18;;
37545;SDS011;23389;52.484;13.572;2023-05-07T00:52:07;20.02;;;14.90;;
37545;SDS011;23389;52.484;13.572;2023-05-07T00:54:32;17.85;;;14.85;;
37545;SDS011;23389;52.484;13.572;2023-05-07T00:56:58;18.58;;;15.60;;
37545;SDS011;23389;52.484;13.572;2023-05-07T00:59:23;17.63;;;14.63;;
37545;SDS011;23389;52.484;13.572;2023-05-07T01:01:48;18.08;;;14.48;;
37545;SDS011;23389;52.484;13.572;2023-05-07T01:04:13;18.67;;;15.13;;
37545;SDS011;23389;52.484;13.572;2023-05-07T01:06:38;16.30;;;14.38;;
37545;SDS011;23389;52.484;13.572;2023-05-07T01:09:04;16.80;;;14.30;;
37545;SDS011;23389;52.484;13.572;2023-05-07T01:11:29;17.50;;;14.40;;
37545;SDS011;23389;52.484;13.572;2023-05-07T01:13:54;19.77;;;14.13;;
37545;SDS011;23389;52.484;13.572;2023-05-07T01:16:19;17.80;;;14.30;;
37545;SDS011;23389;52.484;13.572;2023-05-07T01:18:45;16.30;;;13.65;;
37545;SDS011;23389;52.484;13.572;2023-05-07T01:21:13;15.27;;;13.63;;
37545;SDS011;23389;52.484;13.572;2023-05-07T01:23:40;18.88;;;14.52;;
37545;SDS011;23389;52.484;13.572;2023-05-07T01:26:06;15.48;;;13.73;;
37545;SDS011;23389;52.484;13.572;2023-05-07T01:28:31;16.70;;;13.90;;
37545;SDS011;23389;52.484;13.572;2023-05-07T01:30:58;18.00;;;15.10;;
37545;SDS011;23389;52.484;13.572;2023-05-07T01:33:26;17.02;;;13.77;;
37545;SDS011;23389;52.484;13.572;2023-05-07T01:35:53;19.65;;;14.35;;
37545;SDS011;23389;52.484;13.572;2023-05-07T01:38:18;19.45;;;13.20;;
37545;SDS011;23389;52.484;13.572;2023-05-07T01:40:44;15.15;;;12.55;;
37545;SDS011;23389;52.484;13.572;2023-05-07T01:43:09;17.02;;;13.77;;
37545;SDS011;23389;52.484;13.572;2023-05-07T01:45:35;16.15;;;13.45;;
37545;SDS011;23389;52.484;13.572;2023-05-07T01:48:00;17.45;;;14.32;;
37545;SDS011;23389;52.484;13.572;2023-05-07T01:50:25;16.27;;;13.40;;
37545;SDS011;23389;52.484;13.572;2023-05-07T01:52:51;16.10;;;13.63;;
37545;SDS011;23389;52.484;13.572;2023-05-07T01:55:16;16.42;;;13.90;;
37545;SDS011;23389;52.484;13.572;2023-05-07T01:57:41;18.25;;;13.07;;
37545;SDS011;23389;52.484;13.572;2023-05-07T02:00:07;16.85;;;13.23;;
37545;SDS011;23389;52.484;13.572;2023-05-07T02:02:33;17.38;;;13.82;;
37545;SDS011;23389;52.484;13.572;2023-05-07T02:04:59;17.50;;;13.23;;
37545;SDS011;23389;52.484;13.572;2023-05-07T02:07:24;15.98;;;13.00;;
37545;SDS011;23389;52.484;13.572;2023-05-07T02:09:49;16.77;;;14.07;;
37545;SDS011;23389;52.484;13.572;2023-05-07T02:12:14;18.10;;;14.07;;
37545;SDS011;23389;52.484;13.572;2023-05-07T02:14:40;16.53;;;13.50;;
37545;SDS011;23389;52.484;13.572;2023-05-07T02:17:05;16.42;;;13.77;;
37545;SDS011;23389;52.484;13.572;2023-05-07T02:19:30;18.00;;;14.02;;
37545;SDS011;23389;52.484;13.572;2023-05-07T02:21:55;19.13;;;14.13;;
37545;SDS011;23389;52.484;13.572;2023-05-07T02:24:20;17.23;;;13.60;;
37545;SDS011;23389;52.484;13.572;2023-05-07T02:26:45;16.88;;;14.27;;
37545;SDS011;23389;52.484;13.572;2023-05-07T02:29:10;18.25;;;13.95;;
37545;SDS011;23389;52.484;13.572;2023-05-07T02:31:36;17.58;;;14.57;;
37545;SDS011;23389;52.484;13.572;2023-05-07T02:34:01;18.90;;;13.83;;
37545;SDS011;23389;52.484;13.572;2023-05-07T02:36:26;17.58;;;14.43;;
37545;SDS011;23389;52.484;13.572;2023-05-07T02:38:52;16.20;;;13.87;;
37545;SDS011;23389;52.484;13.572;2023-05-07T02:41:17;16.73;;;12.70;;
37545;SDS011;23389;52.484;13.572;2023-05-07T02:43:42;16.23;;;13.40;;
37545;SDS011;23389;52.484;13.572;2023-05-07T02:46:07;18.10;;;14.30;;
37545;SDS011;23389;52.484;13.572;2023-05-07T02:48:33;17.48;;;13.50;;
37545;SDS011;23389;52.484;13.572;2023-05-07T02:50:58;16.20;;;13.43;;
37545;SDS011;23389;52.484;13.572;2023-05-07T02:53:24;16.85;;;12.80;;
37545;SDS011;23389;52.484;13.572;2023-05-07T02:55:51;16.98;;;12.35;;
37545;SDS011;23389;52.484;13.572;2023-05-07T02:58:16;16.38;;;12.82;;
37545;SDS011;23389;52.484;13.572;2023-05-07T03:00:41;17.75;;;12.50;;
37545;SDS011;23389;52.484;13.572;2023-05-07T03:03:06;16.50;;;12.30;;
37545;SDS011;23389;52.484;13.572;2023-05-07T03:05:31;16.05;;;12.68;;
37545;SDS011;23389;52.484;13.572;2023-05-07T03:07:56;18.38;;;12.98;;
37545;SDS011;23389;52.484;13.572;2023-05-07T03:10:21;15.40;;;13.07;;
37545;SDS011;23389;52.484;13.572;2023-05-07T03:12:47;15.18;;;12.75;;
37545;SDS011;23389;52.484;13.572;2023-05-07T03:15:12;16.58;;;12.88;;
37545;SDS011;23389;52.484;13.572;2023-05-07T03:17:37;16.50;;;12.85;;
37545;SDS011;23389;52.484;13.572;2023-05-07T03:20:02;17.13;;;12.75;;
37545;SDS011;23389;52.484;13.572;2023-05-07T03:22:28;15.98;;;12.55;;
37545;SDS011;23389;52.484;13.572;2023-05-07T03:24:53;16.77;;;13.40;;
37545;SDS011;23389;52.484;13.572;2023-05-07T03:27:18;19.13;;;13.35;;
37545;SDS011;23389;52.484;13.572;2023-05-07T03:29:43;16.95;;;13.30;;
37545;SDS011;23389;52.484;13.572;2023-05-07T03:32:08;16.80;;;12.65;;
37545;SDS011;23389;52.484;13.572;2023-05-07T03:34:33;14.90;;;12.70;;
37545;SDS011;23389;52.484;13.572;2023-05-07T03:36:58;16.27;;;13.33;;
37545;SDS011;23389;52.484;13.572;2023-05-07T03:39:23;15.35;;;12.82;;
37545;SDS011;23389;52.484;13.572;2023-05-07T03:41:48;19.63;;;13.23;;
37545;SDS011;23389;52.484;13.572;2023-05-07T03:44:14;16.80;;;12.50;;
37545;SDS011;23389;52.484;13.572;2023-05-07T03:46:39;16.60;;;12.52;;
37545;SDS011;23389;52.484;13.572;2023-05-07T03:49:04;15.87;;;12.90;;
37545;SDS011;23389;52.484;13.572;2023-05-07T03:51:29;16.03;;;12.93;;
37545;SDS011;23389;52.484;13.572;2023-05-07T03:53:55;15.27;;;12.48;;
37545;SDS011;23389;52.484;13.572;2023-05-07T03:56:22;17.40;;;13.27;;
37545;SDS011;23389;52.484;13.572;2023-05-07T03:58:47;15.65;;;11.73;;
37545;SDS011;23389;52.484;13.572;2023-05-07T04:01:12;16.70;;;11.97;;
37545;SDS011;23389;52.484;13.572;2023-05-07T04:03:37;15.77;;;11.60;;
37545;SDS011;23389;52.484;13.572;2023-05-07T04:06:02;14.73;;;11.45;;
37545;SDS011;23389;52.484;13.572;2023-05-07T04:08:27;14.27;;;11.40;;
37545;SDS011;23389;52.484;13.572;2023-05-07T04:10:56;14.65;;;11.05;;
37545;SDS011;23389;52.484;13.572;2023-05-07T04:13:21;16.25;;;11.93;;
37545;SDS011;23389;52.484;13.572;2023-05-07T04:15:46;14.63;;;11.43;;
37545;SDS011;23389;52.484;13.572;2023-05-07T04:18:11;15.10;;;12.00;;
37545;SDS011;23389;52.484;13.572;2023-05-07T04:20:36;15.50;;;11.77;;
37545;SDS011;23389;52.484;13.572;2023-05-07T04:23:01;14.85;;;11.32;;
37545;SDS011;23389;52.484;13.572;2023-05-07T04:25:27;13.33;;;11.10;;
37545;SDS011;23389;52.484;13.572;2023-05-07T04:27:52;14.35;;;11.02;;
37545;SDS011;23389;52.484;13.572;2023-05-07T04:30:17;14.82;;;11.25;;
37545;SDS011;23389;52.484;13.572;2023-05-07T04:32:42;12.38;;;10.38;;
37545;SDS011;23389;52.484;13.572;2023-05-07T04:35:09;13.95;;;10.90;;
37545;SDS011;23389;52.484;13.572;2023-05-07T04:37:34;13.15;;;10.18;;
37545;SDS011;23389;52.484;13.572;2023-05-07T04:40:00;13.95;;;10.60;;
37545;SDS011;23389;52.484;13.572;2023-05-07T04:42:25;12.43;;;9.93;;
37545;SDS011;23389;52.484;13.572;2023-05-07T04:44:52;12.57;;;9.48;;
37545;SDS011;23389;52.484;13.572;2023-05-07T04:47:17;11.00;;;9.02;;
37545;SDS011;23389;52.484;13.572;2023-05-07T04:49:42;11.07;;;8.65;;
37545;SDS011;23389;52.484;13.572;2023-05-07T04:52:07;11.57;;;8.82;;
37545;SDS011;23389;52.484;13.572;2023-05-07T04:54:32;11.63;;;8.95;;
37545;SDS011;23389;52.484;13.572;2023-05-07T04:56:57;11.43;;;8.93;;
37545;SDS011;23389;52.484;13.572;2023-05-07T04:59:22;13.07;;;9.10;;
37545;SDS011;23389;52.484;13.572;2023-05-07T05:01:48;13.77;;;8.93;;
37545;SDS011;23389;52.484;13.572;2023-05-07T05:04:13;10.82;;;8.70;;
37545;SDS011;23389;52.484;13.572;2023-05-07T05:06:38;11.75;;;9.13;;
37545;SDS011;23389;52.484;13.572;2023-05-07T05:09:03;12.25;;;9.55;;
37545;SDS011;23389;52.484;13.572;2023-05-07T05:11:29;14.82;;;9.35;;
37545;SDS011;23389;52.484;13.572;2023-05-07T05:13:54;12.40;;;9.15;;
37545;SDS011;23389;52.484;13.572;2023-05-07T05:16:20;12.70;;;9.40;;
37545;SDS011;23389;52.484;13.572;2023-05-07T05:18:45;12.25;;;9.25;;
37545;SDS011;23389;52.484;13.572;2023-05-07T05:21:10;12.25;;;9.80;;
37545;SDS011;23389;52.484;13.572;2023-05-07T05:23:35;13.63;;;9.37;;
37545;SDS011;23389;52.484;13.572;2023-05-07T05:26:00;12.17;;;9.57;;
37545;SDS011;23389;52.484;13.572;2023-05-07T05:28:25;11.90;;;8.82;;
37545;SDS011;23389;52.484;13.572;2023-05-07T05:30:50;13.73;;;9.27;;
37545;SDS011;23389;52.484;13.572;2023-05-07T05:33:16;12.93;;;9.33;;
37545;SDS011;23389;52.484;13.572;2023-05-07T05:35:41;13.30;;;9.80;;
37545;SDS011;23389;52.484;13.572;2023-05-07T05:38:06;14.45;;;10.10;;
37545;SDS011;23389;52.484;13.572;2023-05-07T05:40:31;13.20;;;9.70;;
37545;SDS011;23389;52.484;13.572;2023-05-07T05:42:57;13.18;;;9.90;;
37545;SDS011;23389;52.484;13.572;2023-05-07T05:45:22;13.43;;;9.47;;
37545;SDS011;23389;52.484;13.572;2023-05-07T05:47:47;12.88;;;9.23;;
37545;SDS011;23389;52.484;13.572;2023-05-07T05:50:12;12.30;;;8.63;;
37545;SDS011;23389;52.484;13.572;2023-05-07T05:52:37;12.98;;;9.07;;
37545;SDS011;23389;52.484;13.572;2023-05-07T05:55:03;13.20;;;8.82;;
37545;SDS011;23389;52.484;13.572;2023-05-07T05:57:28;13.30;;;9.25;;
37545;SDS011;23389;52.484;13.572;2023-05-07T05:59:53;13.53;;;8.37;;
37545;SDS011;23389;52.484;13.572;2023-05-07T06:02:18;14.73;;;9.90;;
37545;SDS011;23389;52.484;13.572;2023-05-07T06:04:43;13.27;;;8.40;;
37545;SDS011;23389;52.484;13.572;2023-05-07T06:07:08;11.90;;;8.07;;
37545;SDS011;23389;52.484;13.572;2023-05-07T06:09:34;12.23;;;8.48;;
37545;SDS011;23389;52.484;13.572;2023-05-07T06:11:59;11.98;;;8.23;;
37545;SDS011;23389;52.484;13.572;2023-05-07T06:14:24;12.10;;;8.63;;
37545;SDS011;23389;52.484;13.572;2023-05-07T06:16:49;12.02;;;8.82;;
37545;SDS011;23389;52.484;13.572;2023-05-07T06:19:15;9.67;;;8.00;;
37545;SDS011;23389;52.484;13.572;2023-05-07T06:21:42;10.90;;;7.65;;
37545;SDS011;23389;52.484;13.572;2023-05-07T06:24:08;11.27;;;8.23;;
37545;SDS011;23389;52.484;13.572;2023-05-07T06:26:33;10.18;;;7.43;;
37545;SDS011;23389;52.484;13.572;2023-05-07T06:28:58;10.65;;;8.38;;
37545;SDS011;23389;52.484;13.572;2023-05-07T06:31:28;10.52;;;7.35;;
37545;SDS011;23389;52.484;13.572;2023-05-07T06:33:53;10.70;;;8.27;;
37545;SDS011;23389;52.484;13.572;2023-05-07T06:36:20;13.35;;;8.30;;
37545;SDS011;23389;52.484;13.572;2023-05-07T06:38:45;12.68;;;7.97;;
37545;SDS011;23389;52.484;13.572;2023-05-07T06:41:10;11.25;;;8.20;;
37545;SDS011;23389;52.484;13.572;2023-05-07T06:43:35;12.88;;;7.72;;
37545;SDS011;23389;52.484;13.572;2023-05-07T06:46:00;10.48;;;7.43;;
37545;SDS011;23389;52.484;13.572;2023-05-07T06:48:25;10.05;;;6.32;;
37545;SDS011;23389;52.484;13.572;2023-05-07T06:50:50;10.15;;;6.15;;
37545;SDS011;23389;52.484;13.572;2023-05-07T06:53:16;9.43;;;5.90;;
37545;SDS011;23389;52.484;13.572;2023-05-07T06:55:41;10.18;;;6.50;;
37545;SDS011;23389;52.484;13.572;2023-05-07T06:58:06;9.23;;;6.45;;
37545;SDS011;23389;52.484;13.572;2023-05-07T07:00:31;9.63;;;7.07;;
37545;SDS011;23389;52.484;13.572;2023-05-07T07:02:57;10.10;;;7.03;;
37545;SDS011;23389;52.484;13.572;2023-05-07T07:05:22;9.75;;;6.93;;
37545;SDS011;23389;52.484;13.572;2023-05-07T07:07:47;10.68;;;7.15;;
37545;SDS011;23389;52.484;13.572;2023-05-07T07:10:21;11.65;;;7.60;;
37545;SDS011;23389;52.484;13.572;2023-05-07T07:12:49;9.85;;;6.38;;
37545;SDS011;23389;52.484;13.572;2023-05-07T07:15:14;10.85;;;6.78;;
37545;SDS011;23389;52.484;13.572;2023-05-07T07:17:40;8.88;;;6.22;;
37545;SDS011;23389;52.484;13.572;2023-05-07T07:20:05;8.57;;;6.15;;
37545;SDS011;23389;52.484;13.572;2023-05-07T07:22:30;9.93;;;5.80;;
37545;SDS011;23389;52.484;13.572;2023-05-07T07:24:55;8.50;;;5.67;;
37545;SDS011;23389;52.484;13.572;2023-05-07T07:27:20;9.18;;;5.70;;
37545;SDS011;23389;52.484;13.572;2023-05-07T07:29:48;8.38;;;5.82;;
37545;SDS011;23389;52.484;13.572;2023-05-07T07:32:21;9.20;;;5.80;;
37545;SDS011;23389;52.484;13.572;2023-05-07T07:34:46;8.85;;;5.93;;
37545;SDS011;23389;52.484;13.572;2023-05-07T07:37:11;10.63;;;6.47;;
37545;SDS011;23389;52.484;13.572;2023-05-07T07:39:39;7.40;;;5.35;;
37545;SDS011;23389;52.484;13.572;2023-05-07T07:42:04;7.68;;;5.20;;
37545;SDS011;23389;52.484;13.572;2023-05-07T07:44:30;8.13;;;5.10;;
37545;SDS011;23389;52.484;13.572;2023-05-07T07:46:55;7.60;;;5.50;;
37545;SDS011;23389;52.484;13.572;2023-05-07T07:49:20;7.33;;;4.83;;
37545;SDS011;23389;52.484;13.572;2023-05-07T07:51:45;8.32;;;5.10;;
37545;SDS011;23389;52.484;13.572;2023-05-07T07:54:10;7.57;;;5.60;;
37545;SDS011;23389;52.484;13.572;2023-05-07T07:56:35;7.77;;;4.93;;
37545;SDS011;23389;52.484;13.572;2023-05-07T07:59:01;7.13;;;5.00;;
37545;SDS011;23389;52.484;13.572;2023-05-07T08:01:29;8.05;;;4.63;;
37545;SDS011;23389;52.484;13.572;2023-05-07T08:03:54;6.70;;;4.13;;
37545;SDS011;23389;52.484;13.572;2023-05-07T08:06:19;7.97;;;4.00;;
37545;SDS011;23389;52.484;13.572;2023-05-07T08:08:44;7.00;;;4.10;;
37545;SDS011;23389;52.484;13.572;2023-05-07T08:11:09;7.15;;;4.15;;
37545;SDS011;23389;52.484;13.572;2023-05-07T08:13:34;6.53;;;3.70;;
37545;SDS011;23389;52.484;13.572;2023-05-07T08:16:00;5.03;;;3.23;;
37545;SDS011;23389;52.484;13.572;2023-05-07T08:18:25;7.00;;;3.58;;
37545;SDS011;23389;52.484;13.572;2023-05-07T08:20:51;6.43;;;3.72;;
37545;SDS011;23389;52.484;13.572;2023-05-07T08:23:16;6.28;;;3.72;;
37545;SDS011;23389;52.484;13.572;2023-05-07T08:25:41;6.07;;;3.47;;
37545;SDS011;23389;52.484;13.572;2023-05-07T08:28:07;6.57;;;3.90;;
37545;SDS011;23389;52.484;13.572;2023-05-07T08:30:32;6.20;;;3.57;;
37545;SDS011;23389;52.484;13.572;2023-05-07T08:32:57;7.72;;;3.30;;
37545;SDS011;23389;52.484;13.572;2023-05-07T08:35:22;7.03;;;3.80;;
37545;SDS011;23389;52.484;13.572;2023-05-07T08:37:48;6.30;;;3.57;;
37545;SDS011;23389;52.484;13.572;2023-05-07T08:40:13;6.78;;;3.33;;
37545;SDS011;23389;52.484;13.572;2023-05-07T08:42:38;4.90;;;3.17;;
37545;SDS011;23389;52.484;13.572;2023-05-07T08:45:05;7.25;;;3.55;;
37545;SDS011;23389;52.484;13.572;2023-05-07T08:47:35;9.18;;;3.95;;
37545;SDS011;23389;52.484;13.572;2023-05-07T08:50:03;6.90;;;3.60;;
37545;SDS011;23389;52.484;13.572;2023-05-07T08:52:29;6.20;;;3.40;;
37545;SDS011;23389;52.484;13.572;2023-05-07T08:54:54;5.05;;;3.10;;
37545;SDS011;23389;52.484;13.572;2023-05-07T08:57:20;6.97;;;3.80;;
37545;SDS011;23389;52.484;13.572;2023-05-07T08:59:46;7.00;;;3.80;;
37545;SDS011;23389;52.484;13.572;2023-05-07T09:02:12;6.15;;;3.45;;
37545;SDS011;23389;52.484;13.572;2023-05-07T09:04:37;7.13;;;3.25;;
37545;SDS011;23389;52.484;13.572;2023-05-07T09:07:02;5.82;;;3.00;;
37545;SDS011;23389;52.484;13.572;2023-05-07T09:09:30;6.22;;;3.67;;
37545;SDS011;23389;52.484;13.572;2023-05-07T09:11:57;6.75;;;3.28;;
37545;SDS011;23389;52.484;13.572;2023-05-07T09:14:24;6.30;;;3.47;;
37545;SDS011;23389;52.484;13.572;2023-05-07T09:16:51;5.88;;;3.25;;
37545;SDS011;23389;52.484;13.572;2023-05-07T09:19:21;7.00;;;3.35;;
37545;SDS011;23389;52.484;13.572;2023-05-07T09:21:46;6.05;;;3.28;;
37545;SDS011;23389;52.484;13.572;2023-05-07T09:24:11;6.93;;;3.20;;
37545;SDS011;23389;52.484;13.572;2023-05-07T09:26:40;5.43;;;3.13;;
37545;SDS011;23389;52.484;13.572;2023-05-07T09:29:05;5.43;;;3.20;;
37545;SDS011;23389;52.484;13.572;2023-05-07T09:31:30;5.97;;;2.88;;
37545;SDS011;23389;52.484;13.572;2023-05-07T09:33:56;4.95;;;2.30;;
37545;SDS011;23389;52.484;13.572;2023-05-07T09:36:22;6.28;;;2.90;;
37545;SDS011;23389;52.484;13.572;2023-05-07T09:38:47;5.18;;;2.38;;
37545;SDS011;23389;52.484;13.572;2023-05-07T09:41:12;5.40;;;2.42;;
37545;SDS011;23389;52.484;13.572;2023-05-07T09:43:38;5.40;;;2.60;;
37545;SDS011;23389;52.484;13.572;2023-05-07T09:46:07;4.45;;;2.20;;
37545;SDS011;23389;52.484;13.572;2023-05-07T09:48:35;4.30;;;2.33;;
37545;SDS011;23389;52.484;13.572;2023-05-07T09:51:02;5.20;;;1.80;;
37545;SDS011;23389;52.484;13.572;2023-05-07T09:53:28;4.05;;;1.55;;
37545;SDS011;23389;52.484;13.572;2023-05-07T09:55:53;5.35;;;1.60;;
37545;SDS011;23389;52.484;13.572;2023-05-07T09:58:18;2.93;;;1.53;;
37545;SDS011;23389;52.484;13.572;2023-05-07T10:00:44;3.42;;;1.75;;
37545;SDS011;23389;52.484;13.572;2023-05-07T10:03:10;3.10;;;1.52;;
37545;SDS011;23389;52.484;13.572;2023-05-07T10:05:36;4.15;;;1.73;;
37545;SDS011;23389;52.484;13.572;2023-05-07T10:08:02;4.10;;;1.90;;
37545;SDS011;23389;52.484;13.572;2023-05-07T10:10:27;4.68;;;1.63;;
37545;SDS011;23389;52.484;13.572;2023-05-07T10:12:53;3.65;;;1.50;;
37545;SDS011;23389;52.484;13.572;2023-05-07T10:15:19;5.07;;;2.05;;
37545;SDS011;23389;52.484;13.572;2023-05-07T10:17:44;4.18;;;1.95;;
37545;SDS011;23389;52.484;13.572;2023-05-07T10:20:10;5.13;;;1.85;;
37545;SDS011;23389;52.484;13.572;2023-05-07T10:22:38;3.90;;;1.60;;
37545;SDS011;23389;52.484;13.572;2023-05-07T10:25:06;3.30;;;1.50;;
37545;SDS011;23389;52.484;13.572;2023-05-07T10:27:33;3.43;;;1.60;;
37545;SDS011;23389;52.484;13.572;2023-05-07T10:30:04;4.53;;;1.65;;
37545;SDS011;23389;52.484;13.572;2023-05-07T10:34:57;5.32;;;2.17;;
37545;SDS011;23389;52.484;13.572;2023-05-07T10:37:23;5.65;;;2.50;;
37545;SDS011;23389;52.484;13.572;2023-05-07T10:39:48;8.15;;;3.80;;
37545;SDS011;23389;52.484;13.572;2023-05-07T10:42:14;8.05;;;3.60;;
37545;SDS011;23389;52.484;13.572;2023-05-07T10:44:39;6.55;;;3.25;;
37545;SDS011;23389;52.484;13.572;2023-05-07T10:47:05;4.40;;;2.28;;
37545;SDS011;23389;52.484;13.572;2023-05-07T10:49:31;5.35;;;2.85;;
37545;SDS011;23389;52.484;13.572;2023-05-07T10:54:39;8.60;;;3.35;;
37545;SDS011;23389;52.484;13.572;2023-05-07T10:57:32;4.35;;;2.15;;
37545;SDS011;23389;52.484;13.572;2023-05-07T10:59:50;3.88;;;1.95;;
37545;SDS011;23389;52.484;13.572;2023-05-07T11:02:16;5.03;;;1.80;;
37545;SDS011;23389;52.484;13.572;2023-05-07T11:04:42;3.30;;;1.50;;
37545;SDS011;23389;52.484;13.572;2023-05-07T11:12:18;3.65;;;1.63;;
37545;SDS011;23389;52.484;13.572;2023-05-07T11:15:02;3.30;;;1.73;;
37545;SDS011;23389;52.484;13.572;2023-05-07T11:17:28;3.75;;;1.60;;
37545;SDS011;23389;52.484;13.572;2023-05-07T11:19:56;4.03;;;1.85;;
37545;SDS011;23389;52.484;13.572;2023-05-07T11:24:56;5.65;;;1.80;;
37545;SDS011;23389;52.484;13.572;2023-05-07T11:27:24;3.47;;;1.52;;
37545;SDS011;23389;52.484;13.572;2023-05-07T11:29:49;4.70;;;1.67;;
37545;SDS011;23389;52.484;13.572;2023-05-07T11:32:15;3.92;;;1.83;;
37545;SDS011;23389;52.484;13.572;2023-05-07T11:34:40;4.53;;;1.70;;
37545;SDS011;23389;52.484;13.572;2023-05-07T11:37:05;3.45;;;1.30;;
37545;SDS011;23389;52.484;13.572;2023-05-07T11:39:31;4.17;;;1.80;;
37545;SDS011;23389;52.484;13.572;2023-05-07T11:41:57;3.15;;;1.50;;
37545;SDS011;23389;52.484;13.572;2023-05-07T11:44:23;4.25;;;2.00;;
37545;SDS011;23389;52.484;13.572;2023-05-07T11:46:48;4.53;;;2.10;;
37545;SDS011;23389;52.484;13.572;2023-05-07T11:49:13;4.72;;;1.80;;
37545;SDS011;23389;52.484;13.572;2023-05-07T11:51:38;4.07;;;1.50;;
37545;SDS011;23389;52.484;13.572;2023-05-07T11:54:03;5.70;;;1.88;;
37545;SDS011;23389;52.484;13.572;2023-05-07T11:56:29;3.15;;;1.55;;
37545;SDS011;23389;52.484;13.572;2023-05-07T11:58:54;4.78;;;1.80;;
37545;SDS011;23389;52.484;13.572;2023-05-07T12:01:19;5.13;;;1.60;;
37545;SDS011;23389;52.484;13.572;2023-05-07T12:03:45;2.53;;;1.30;;
37545;SDS011;23389;52.484;13.572;2023-05-07T12:06:14;4.32;;;1.50;;
37545;SDS011;23389;52.484;13.572;2023-05-07T12:08:40;4.13;;;1.75;;
37545;SDS011;23389;52.484;13.572;2023-05-07T12:11:09;3.47;;;1.50;;
37545;SDS011;23389;52.484;13.572;2023-05-07T12:13:36;3.80;;;1.67;;
37545;SDS011;23389;52.484;13.572;2023-05-07T12:16:01;4.70;;;1.40;;
37545;SDS011;23389;52.484;13.572;2023-05-07T12:18:28;3.05;;;1.45;;
37545;SDS011;23389;52.484;13.572;2023-05-07T12:20:53;3.33;;;1.40;;
37545;SDS011;23389;52.484;13.572;2023-05-07T12:23:18;3.17;;;1.40;;
37545;SDS011;23389;52.484;13.572;2023-05-07T12:25:44;3.63;;;1.50;;
37545;SDS011;23389;52.484;13.572;2023-05-07T12:28:13;2.97;;;1.40;;
37545;SDS011;23389;52.484;13.572;2023-05-07T12:30:38;4.03;;;1.60;;
37545;SDS011;23389;52.484;13.572;2023-05-07T12:33:03;5.90;;;1.70;;
37545;SDS011;23389;52.484;13.572;2023-05-07T12:35:29;2.63;;;1.45;;
37545;SDS011;23389;52.484;13.572;2023-05-07T12:37:58;5.88;;;1.40;;
37545;SDS011;23389;52.484;13.572;2023-05-07T12:40:24;3.97;;;1.50;;
37545;SDS011;23389;52.484;13.572;2023-05-07T12:42:52;4.20;;;1.55;;
37545;SDS011;23389;52.484;13.572;2023-05-07T12:45:18;6.75;;;1.70;;
37545;SDS011;23389;52.484;13.572;2023-05-07T12:47:43;3.47;;;1.40;;
37545;SDS011;23389;52.484;13.572;2023-05-07T12:50:09;2.75;;;1.30;;
37545;SDS011;23389;52.484;13.572;2023-05-07T12:52:34;3.80;;;1.40;;
37545;SDS011;23389;52.484;13.572;2023-05-07T12:55:06;4.93;;;1.50;;
37545;SDS011;23389;52.484;13.572;2023-05-07T12:57:39;3.08;;;1.30;;
37545;SDS011;23389;52.484;13.572;2023-05-07T13:00:05;2.95;;;1.27;;
37545;SDS011;23389;52.484;13.572;2023-05-07T13:02:33;2.15;;;1.30;;
37545;SDS011;23389;52.484;13.572;2023-05-07T13:04:59;2.70;;;1.40;;
37545;SDS011;23389;52.484;13.572;2023-05-07T13:07:25;3.63;;;1.13;;
37545;SDS011;23389;52.484;13.572;2023-05-07T13:09:50;3.50;;;1.50;;
37545;SDS011;23389;52.484;13.572;2023-05-07T13:12:15;4.35;;;1.42;;
37545;SDS011;23389;52.484;13.572;2023-05-07T13:14:40;3.30;;;1.60;;
37545;SDS011;23389;52.484;13.572;2023-05-07T13:17:05;2.75;;;1.40;;
37545;SDS011;23389;52.484;13.572;2023-05-07T13:19:30;4.20;;;1.42;;
37545;SDS011;23389;52.484;13.572;2023-05-07T13:21:55;3.35;;;1.40;;
37545;SDS011;23389;52.484;13.572;2023-05-07T13:24:20;3.20;;;1.40;;
37545;SDS011;23389;52.484;13.572;2023-05-07T13:26:45;4.82;;;1.17;;
37545;SDS011;23389;52.484;13.572;2023-05-07T13:29:10;4.68;;;1.60;;
37545;SDS011;23389;52.484;13.572;2023-05-07T13:31:36;3.08;;;1.20;;
37545;SDS011;23389;52.484;13.572;2023-05-07T13:34:01;4.85;;;1.65;;
37545;SDS011;23389;52.484;13.572;2023-05-07T13:36:26;3.83;;;1.55;;
37545;SDS011;23389;52.484;13.572;2023-05-07T13:38:51;3.42;;;1.48;;
37545;SDS011;23389;52.484;13.572;2023-05-07T13:41:17;4.82;;;1.50;;
37545;SDS011;23389;52.484;13.572;2023-05-07T13:43:42;5.25;;;1.65;;
37545;SDS011;23389;52.484;13.572;2023-05-07T13:46:07;3.50;;;1.50;;
37545;SDS011;23389;52.484;13.572;2023-05-07T13:48:32;3.28;;;1.45;;
37545;SDS011;23389;52.484;13.572;2023-05-07T13:50:57;3.37;;;1.70;;
37545;SDS011;23389;52.484;13.572;2023-05-07T13:53:22;3.08;;;1.60;;
37545;SDS011;23389;52.484;13.572;2023-05-07T13:55:48;4.15;;;1.58;;
37545;SDS011;23389;52.484;13.572;2023-05-07T13:58:13;2.83;;;1.17;;
37545;SDS011;23389;52.484;13.572;2023-05-07T14:00:38;3.30;;;1.50;;
37545;SDS011;23389;52.484;13.572;2023-05-07T14:03:04;4.78;;;1.50;;
37545;SDS011;23389;52.484;13.572;2023-05-07T14:05:29;4.35;;;1.50;;
37545;SDS011;23389;52.484;13.572;2023-05-07T14:07:55;3.10;;;1.60;;
37545;SDS011;23389;52.484;13.572;2023-05-07T14:10:21;3.45;;;1.60;;
37545;SDS011;23389;52.484;13.572;2023-05-07T14:12:46;3.25;;;1.40;;
37545;SDS011;23389;52.484;13.572;2023-05-07T14:15:12;3.33;;;1.25;;
37545;SDS011;23389;52.484;13.572;2023-05-07T14:17:37;2.22;;;1.13;;
37545;SDS011;23389;52.484;13.572;2023-05-07T14:20:02;3.65;;;1.40;;
37545;SDS011;23389;52.484;13.572;2023-05-07T14:22:27;3.55;;;1.40;;
37545;SDS011;23389;52.484;13.572;2023-05-07T14:24:52;1.98;;;1.17;;
37545;SDS011;23389;52.484;13.572;2023-05-07T14:27:18;3.70;;;1.27;;